Laquey, Missouri
Current Conditions -  °F | °C
As of 5:58 AM on Monday 20 Oct 2014 (Local Time) from KTBN Reporting Station
Overcast Overcast  
Wind Chill: 13°   Ceiling: 6500
Heat Index: 13°   Visibility: 10mi
Dew Point: 11°   Wind: 3mph
Humidity: 85%   Direction: 220°SW
Pressure: 30.01"   Gusts: NA
Location:  37.77°N, 92.3°W
Report Text: KTBN 201058Z AUTO 22003KT 10SM OVC065 13/11 A3001 RMK AO2 SLP163 T01290105 $
Loading
Personal Weather Stations






























Interactive Weather Map
Tropical Storm Tracking
New forecast layout! Learn more

10-Day Weather Forecast

Advertisements
Track Severe Weather on mobile